Bridgeport Valley, California Weather observations

Data are for 10 minute period ending at time listed.
 Day   Time   Solar   Ave.   Ave.  Ave.  Vector  Max.   Baro.   Total    
  of    of     Rad.   Air    Rel.  Wind   Wind   Wind  Press.  Precip.   
Year   Day            Temp.  Hum.  Speed  Dir.   Gust                    
2015   (PST)  Kw/m2    F      %     mph   deg.    mph    mb.     in.     
-------------------------------------------------------------------------
 143   15:30   0.15   46.1    81   13.6    45    18.6   801.4    0.00 
 143   15:40   0.16   45.9    83   12.2    38    16.5   801.4    0.00 
 143   15:50   0.16   45.2    84   12.2    27    19.2   801.4    0.00 
 143   16:00   0.15   44.5    84   10.8    31    17.0   801.4    0.01 
 143   16:10   0.18   45.3    82    8.4    36    11.7   801.5    0.00 
 143   16:20   0.17   44.8    82    9.7    30    13.4   801.4    0.01 
 143   16:30   0.15   44.6    82   11.4    29    17.5   801.5    0.00 
 143   16:40   0.13   44.9    79    8.5    31    15.9   801.5    0.00 
 143   16:50   0.11   45.4    76    7.5    43    11.8   801.5    0.00 
 143   17:00   0.09   45.3    80    4.5    65     7.7   801.5    0.00 
 143   17:10   0.09   45.4    78    2.2    69     4.7   801.5    0.00 
 143   17:20   0.07   45.6    77    2.8    86     5.3   801.4    0.00 
 143   17:30   0.07   45.4    77    2.0   142     6.4   801.5    0.00 
 143   17:40   0.10   45.5    78    2.8   204     3.9   801.5    0.00 
 143   17:50   0.07   45.7    77    3.5   221     5.3   801.5    0.00 
 143   18:00   0.02   45.7    76    3.6   249     6.5   801.5    0.00 
 143   18:10   0.06   44.9    82    6.1   258     8.8   801.6    0.00 
 143   18:20   0.04   44.4    82    6.0   255     7.6   801.6    0.00 
 143   18:30   0.02   44.2    82    5.5   255     7.9   801.7    0.00 
 143   18:40   0.02   44.3    82    4.9   262     6.6   801.7    0.00 
 143   18:50   0.01   44.2    83    3.2   299     6.7   801.8    0.00 
 143   19:00   0.00   44.3    80    2.6   303     4.5   801.9    0.00 
 143   19:10   0.00   44.6    79    1.7    47     3.9   801.9    0.00 
 143   19:20   0.00   44.2    82    0.3    31     2.1   801.9    0.00 
 143   19:30   0.00   44.0    85    1.2   295     2.1   801.9    0.00 
 143   19:40   0.00   43.7    88    0.7   264     2.1   802.1    0.00 
 143   19:50   0.00   43.5    89    1.2   224     2.3   802.1    0.00 
 143   20:00   0.00   43.5    88    0.0   252     0.7   802.1    0.00 
 143   20:10   0.00   43.7    88    0.0     0     0.0   802.1    0.00 
 143   20:20   0.00   43.6    88    0.6   260     1.3   802.1    0.00 
 143   20:30   0.00   43.4    88    0.2    43     1.1   802.1    0.00 
 143   20:40   0.00   43.2    88    1.0   204     2.1   802.2    0.00 
 143   20:50   0.00   43.1    89    1.6   164     2.7   802.2    0.00 
 143   21:00   0.00   42.9    90    0.9   203     2.1   802.2    0.00 
 143   21:10   0.00   42.9    91    2.0   274     2.8   802.2    0.00 
 143   21:20   0.00   43.0    90    1.9   301     2.3   802.2    0.00 
 143   21:30   0.00   43.0    88    1.7   322     2.3   802.3    0.00 
 143   21:40   0.00   42.5    90    1.0   302     2.0   802.3    0.00 
 143   21:50   0.00   42.2    92    1.8   103     2.6   802.3    0.00 
 143   22:00   0.00   42.2    93    0.5   137     1.6   802.3    0.00 
 143   22:10   0.00   42.1    94    1.0    76     1.5   802.4    0.00 
 143   22:20   0.00   42.1    94    0.2   170     1.1   802.4    0.00 
 143   22:30   0.00   42.4    94    0.7   173     1.6   802.5    0.00 
 143   22:40   0.00   42.6    93    1.6   233     2.2   802.5    0.00 
 143   22:50   0.00   42.8    93    2.0   286     2.7   802.4    0.00 
 143   23:00   0.00   42.9    92    1.6   298     2.7   802.3    0.00 
 143   23:10   0.00   42.9    92    1.1   328     2.4   802.4    0.00 
 143   23:20   0.00   42.8    93    0.2   171     1.4   802.3    0.00 
 143   23:30   0.00   42.7    92    0.7   255     2.0   802.4    0.00 
 143   23:40   0.00   42.7    92    0.1    62     2.3   802.4    0.00 
 143   23:50   0.00   42.4    93    1.1    44     2.4   802.4    0.00 
 144    0:00   0.00   42.4    93    2.2    14     3.3   802.4    0.00 
 144    0:10   0.00   42.8    92    2.3     9     2.7   802.5    0.00 
 144    0:20   0.00   42.9    92    1.9     2     2.5   802.5    0.00 
 144    0:30   0.00   42.8    93    2.1   330     2.8   802.5    0.00 
 144    0:40   0.00   42.8    93    1.8   338     2.6   802.6    0.00 
 144    0:50   0.00   42.9    92    0.2   326     1.2   802.6    0.00 
 144    1:00   0.00   43.1    91    0.3   335     1.0   802.5    0.00 
 144    1:10   0.00   43.1    90    0.0     0     0.0   802.4    0.00 
 144    1:20   0.00   43.2    91    0.0     0     0.0   802.4    0.00 
 144    1:30   0.00   43.1    91    0.4   209     1.4   802.3    0.00 
 144    1:40   0.00   42.8    92    2.5   303     3.4   802.3    0.00 
 144    1:50   0.00   42.6    93    2.6   281     3.4   802.3    0.00 
 144    2:00   0.00   42.4    92    0.9   243     1.8   802.3    0.00 
 144    2:10   0.00   42.5    92    1.5   221     2.9   802.1    0.00 
 144    2:20   0.00   42.2    93    1.6   144     3.1   802.1    0.00 
 144    2:30   0.00   42.1    94    2.0   116     2.6   802.0    0.00 
 144    2:40   0.00   41.9    94    1.0   180     1.9   801.9    0.00 
 144    2:50   0.00   40.5    94    3.5   277     5.1   802.0    0.00 
 144    3:00   0.00   39.8    95    2.8   293     3.7   801.9    0.00 
 144    3:10   0.00   40.0    95    1.2   267     2.3   801.8    0.00 
 144    3:20   0.00   38.8    95    3.2   282     4.2   801.8    0.00 
 144    3:30   0.00   38.2    95    0.8   295     3.3   801.8    0.00 
 144    3:40   0.00   38.3    95    1.0    53     2.9   801.8    0.00 
 144    3:50   0.00   38.7    96    1.0    47     2.3   801.8    0.00 
 144    4:00   0.00   39.4    96    1.5    61     2.7   801.9    0.00 
 144    4:10   0.00   39.0    96    1.5    55     2.7   802.0    0.00 
 144    4:20   0.00   38.8    96    0.7   331     1.6   802.0    0.00 
 144    4:30   0.00   39.3    96    0.7    16     1.5   802.1    0.00 
 144    4:40   0.00   39.1    96    1.1    14     2.1   802.2    0.00 
 144    4:50   0.00   39.3    96    0.1    10     0.9   802.2    0.00 
 144    5:00   0.01   39.7    96    1.5   220     2.5   802.3    0.00 
 144    5:10   0.01   40.1    96    1.5   230     2.1   802.3    0.00 
 144    5:20   0.01   40.4    96    2.1   232     2.7   802.3    0.00 
 144    5:30   0.04   40.8    96    0.8   246     1.7   802.3    0.00 
 144    5:40   0.04   41.4    96    0.0     0     0.0   802.4    0.00 
 144    5:50   0.06   41.9    96    0.0     0     0.0   802.5    0.00 
 144    6:00   0.09   42.7    95    0.0     0     0.0   802.6    0.00 
 144    6:10   0.12   43.4    94    0.1   232     1.0   802.5    0.00 
 144    6:20   0.18   43.9    92    0.7   214     2.3   802.4    0.00 
 144    6:30   0.39   45.7    88    2.0   229     4.1   802.4    0.00 
 144    6:40   0.34   46.4    82    3.7   241     5.8   802.3    0.00 
 144    6:50   0.36   47.2    78    1.3   272     3.4   802.4    0.00 
 144    7:00   0.39   48.8    74    0.7   134     3.5   802.4    0.00 
 144    7:10   0.43   49.5    72    1.6    72     3.3   802.2    0.00 
 144    7:20   0.46   50.2    71    1.8    64     4.3   802.2    0.00 
 144    7:30   0.49   50.5    71    3.0    64     5.6   802.2    0.00 
 144    7:40   0.53   50.6    71    2.8    45     6.5   802.1    0.00 
 144    7:50   0.56   51.1    70    3.6    58     5.8   802.2    0.00 
 144    8:00   0.60   51.8    70    3.9    49     6.6   802.2    0.00 
 144    8:10   0.63   52.8    69    3.8    30     7.1   802.1    0.00 
 144    8:20   0.66   53.1    64    3.7    34     6.4   802.0    0.00 
 144    8:30   0.70   53.8    62    3.2    27     5.9   801.9    0.00 
 144    8:40   0.71   54.9    58    2.9    41     6.1   801.7    0.00 
 144    8:50   0.67   55.5    57    3.7    70     6.3   801.7    0.00 
 144    9:00   0.81   56.2    52    2.3    97     6.6   801.6    0.00 
 144    9:10   0.82   56.8    48    2.1    96     5.3   801.6    0.00 
 144    9:20   0.85   57.9    46    1.6   208     4.2   801.6    0.00 
 144    9:30   0.50   57.3    48    3.1   106     6.4   801.6    0.00 
 144    9:40   0.53   56.4    49    3.1    38     6.0   801.6    0.00 
 144    9:50   0.89   57.0    49    3.9    46     7.5   801.5    0.00 
 144   10:00   0.91   58.2    48    3.6    34     7.6   801.5    0.00 
 144   10:10   0.95   57.8    47    3.1    52     7.7   801.4    0.00 
 144   10:20   0.88   58.4    48    4.7    42     9.6   801.4    0.00 
 144   10:30   0.91   58.0    48    4.4    37     7.2   801.3    0.00 
 144   10:40   0.01   58.1    49    4.7    25    11.5   801.3    0.00 
 144   10:50   1.03   58.8    47    4.1    53     8.1   801.2    0.00 
 144   11:00   0.98   59.5    45    3.4    58     6.9   801.0    0.00 
 144   11:10   0.43   59.8    45    4.6    49     8.6   800.9    0.00 
 144   11:20   0.60   60.2    43    3.3    22     9.1   800.9    0.00 
 144   11:30   0.94   60.6    44    2.9   325     8.4   800.9    0.00 
 144   11:40   0.62   61.1    41    5.1    35     9.3   800.8    0.00 
 144   11:50   0.74   61.7    40    3.0    69     6.0   800.7    0.00 
 144   12:00   0.15   62.5    41    4.7    90    10.0   800.5    0.00 
 144   12:10   0.70   62.3    38    2.8    87     7.4   800.4    0.00 
 144   12:20   0.88   63.3    37    2.8    78     6.0   800.2    0.00 
 144   12:30   0.94   62.7    42    5.8    18    11.2   800.1    0.00 
 144   12:40   1.00   62.3    46    7.7    22    14.6   800.1    0.00 
 144   12:50   0.59   62.1    48   10.8    24    16.6   800.1    0.00 
 144   13:00   0.99   62.0    47   10.1    14    13.8   800.1    0.00 
 144   13:10   1.18   63.4    46   10.1    17    16.9   800.0    0.00 
 144   13:20   0.32   62.4    43    8.8    26    12.3   799.9    0.00 
 144   13:30   0.64   61.6    45    8.2     6    11.8   799.9    0.00 
 144   13:40   0.76   62.5    44    6.4   360    13.4   799.9    0.00 
 144   13:50   0.92   63.3    41    6.4    15    12.3   799.8    0.00 
 144   14:00   0.31   61.9    43    6.8    11    11.9   799.7    0.00 
 144   14:10   0.21   61.1    45    7.4   357    15.6   799.7    0.00 
 144   14:20   0.08   60.4    45    5.9   345     8.6   799.8    0.00 
 144   14:30   0.20   60.1    46    5.7   294     9.8   799.8    0.00 
 144   14:40   0.25   59.0    54   13.9   239    20.1   799.9    0.00 
 144   14:50   0.14   57.4    58   13.7   240    19.6   799.9    0.00 
 144   15:00   0.06   55.4    63   14.7   254    20.0   800.1    0.03 
 144   15:10   0.09   52.4    73   11.8   263    20.3   800.5    0.08 
 144   15:20   0.16   53.1    74    9.7   259    13.7   800.5    0.01 

Return to Bridgeport Valley graphs page.


Western Regional Climate Center,wrcc@dri.edu